Aviation Digital Data Service (ADDS)

Output produced by METARs form (1628 UTC 19 December 2014)
found at http://aviationweather.gov/adds/metars/
 
KBDL 191455Z 1915/2018 31012KT P6SM OVC035 
     FM200300 33004KT P6SM SCT020 BKN050 
     FM200900 VRB03KT P6SM BKN025 
     FM201100 VRB03KT P6SM BKN060